Time,TemperatureF,DewpointF,PressureIn,WindDirection,WindDirectionDegrees,WindSpeedMPH,WindSpeedGustMPH,Humidity,HourlyPrecipIn,Conditions,Clouds,dailyrainin,SoftwareType,DateUTC
2013-02-17 00:10:00,47.1,38.2,29.96,WNW,284,0.0,0.0,71,0.00,,,0.00,Wunderground v.1.15,2013-02-17 08:10:00,
2013-02-17 00:16:00,47.0,38.4,29.96,WNW,284,0.0,0.0,72,0.00,,,0.00,Wunderground v.1.15,2013-02-17 08:16:00,
2013-02-17 00:20:00,46.9,38.7,29.96,WNW,284,0.0,0.0,73,0.00,,,0.00,Wunderground v.1.15,2013-02-17 08:20:00,
2013-02-17 00:25:00,47.0,39.1,29.96,WNW,284,0.0,0.0,74,0.00,,,0.00,Wunderground v.1.15,2013-02-17 08:25:00,
2013-02-17 00:30:00,47.3,39.8,29.96,WNW,284,0.0,0.0,75,0.00,,,0.00,Wunderground v.1.15,2013-02-17 08:30:00,
2013-02-17 00:40:00,47.8,40.6,29.96,WNW,284,0.0,0.0,76,0.00,,,0.00,Wunderground v.1.15,2013-02-17 08:40:00,
2013-02-17 00:50:00,47.8,40.3,29.96,WNW,284,0.0,0.0,75,0.00,,,0.00,Wunderground v.1.15,2013-02-17 08:50:00,
2013-02-17 00:56:00,47.8,40.6,29.96,WNW,284,0.0,0.0,76,0.00,,,0.00,Wunderground v.1.15,2013-02-17 08:56:00,
2013-02-17 01:00:00,47.9,40.7,29.96,WNW,284,0.0,0.0,76,0.00,,,0.00,Wunderground v.1.15,2013-02-17 09:00:00,
2013-02-17 01:10:00,47.7,40.5,29.96,WNW,284,0.0,0.0,76,0.00,,,0.00,Wunderground v.1.15,2013-02-17 09:10:00,
2013-02-17 01:20:00,47.3,40.5,29.95,WNW,284,0.0,0.0,77,0.00,,,0.00,Wunderground v.1.15,2013-02-17 09:20:00,
2013-02-17 01:25:00,47.0,40.2,29.96,WNW,284,0.0,0.0,77,0.00,,,0.00,Wunderground v.1.15,2013-02-17 09:25:00,
2013-02-17 01:30:00,46.8,40.3,29.96,WNW,284,0.0,0.0,78,0.00,,,0.00,Wunderground v.1.15,2013-02-17 09:30:00,
2013-02-17 01:35:00,46.6,40.1,29.95,WNW,284,0.0,0.0,78,0.00,,,0.00,Wunderground v.1.15,2013-02-17 09:35:00,
2013-02-17 01:40:00,46.5,40.0,29.95,WNW,284,0.0,0.0,78,0.00,,,0.00,Wunderground v.1.15,2013-02-17 09:40:00,
2013-02-17 01:45:00,46.3,39.8,29.95,WNW,284,0.0,0.0,78,0.00,,,0.00,Wunderground v.1.15,2013-02-17 09:45:00,
2013-02-17 01:50:00,46.3,39.8,29.95,WNW,284,0.0,0.0,78,0.00,,,0.00,Wunderground v.1.15,2013-02-17 09:50:00,
2013-02-17 02:00:00,46.0,39.9,29.95,WNW,284,0.0,0.0,79,0.00,,,0.00,Wunderground v.1.15,2013-02-17 10:00:00,
2013-02-17 02:05:00,46.0,39.9,29.95,WNW,284,0.0,0.0,79,0.00,,,0.00,Wunderground v.1.15,2013-02-17 10:05:00,
2013-02-17 02:20:00,45.4,39.6,29.95,WNW,284,0.0,0.0,80,0.00,,,0.00,Wunderground v.1.15,2013-02-17 10:20:00,
2013-02-17 02:25:00,45.1,39.3,29.95,WNW,284,0.0,0.0,80,0.00,,,0.00,Wunderground v.1.15,2013-02-17 10:25:00,
2013-02-17 02:30:00,44.9,39.4,29.94,WNW,284,0.0,0.0,81,0.00,,,0.00,Wunderground v.1.15,2013-02-17 10:30:00,
2013-02-17 02:35:00,44.7,39.2,29.94,WNW,284,0.0,0.0,81,0.00,,,0.00,Wunderground v.1.15,2013-02-17 10:35:00,
2013-02-17 02:40:00,44.8,39.6,29.94,WNW,284,0.0,0.0,82,0.00,,,0.00,Wunderground v.1.15,2013-02-17 10:40:00,
2013-02-17 02:45:00,44.9,39.7,29.95,WNW,284,0.0,0.0,82,0.00,,,0.00,Wunderground v.1.15,2013-02-17 10:45:00,
2013-02-17 02:51:00,44.9,40.0,29.94,WNW,284,0.0,0.0,83,0.00,,,0.00,Wunderground v.1.15,2013-02-17 10:51:00,
2013-02-17 02:55:00,45.1,40.6,29.94,WNW,284,0.0,0.0,84,0.00,,,0.00,Wunderground v.1.15,2013-02-17 10:55:00,
2013-02-17 03:00:00,45.1,40.6,29.94,WNW,284,0.0,0.0,84,0.00,,,0.00,Wunderground v.1.15,2013-02-17 11:00:00,
2013-02-17 03:05:00,45.2,40.7,29.94,WNW,284,0.0,0.0,84,0.00,,,0.00,Wunderground v.1.15,2013-02-17 11:05:00,
2013-02-17 03:16:00,45.1,40.6,29.94,WNW,284,0.0,0.0,84,0.00,,,0.00,Wunderground v.1.15,2013-02-17 11:16:00,
2013-02-17 03:25:00,45.0,40.5,29.93,WNW,284,0.0,0.0,84,0.00,,,0.00,Wunderground v.1.15,2013-02-17 11:25:00,
2013-02-17 03:35:00,44.6,40.4,29.93,WNW,284,0.0,0.0,85,0.00,,,0.00,Wunderground v.1.15,2013-02-17 11:35:00,
2013-02-17 03:40:00,44.3,40.1,29.94,WNW,284,0.0,0.0,85,0.00,,,0.00,Wunderground v.1.15,2013-02-17 11:40:00,
2013-02-17 03:45:00,44.2,40.0,29.94,WNW,284,0.0,0.0,85,0.00,,,0.00,Wunderground v.1.15,2013-02-17 11:45:00,
2013-02-17 03:50:00,43.9,39.7,29.93,WNW,284,0.0,0.0,85,0.00,,,0.00,Wunderground v.1.15,2013-02-17 11:50:00,
2013-02-17 03:55:00,43.7,39.5,29.93,WNW,284,0.0,0.0,85,0.00,,,0.00,Wunderground v.1.15,2013-02-17 11:55:00,
2013-02-17 04:00:00,43.5,39.3,29.93,WNW,284,0.0,0.0,85,0.00,,,0.00,Wunderground v.1.15,2013-02-17 12:00:00,
2013-02-17 04:05:00,43.4,39.5,29.93,WNW,284,0.0,0.0,86,0.00,,,0.00,Wunderground v.1.15,2013-02-17 12:05:00,
2013-02-17 04:10:00,43.4,39.5,29.93,WNW,284,0.0,0.0,86,0.00,,,0.00,Wunderground v.1.15,2013-02-17 12:10:00,
2013-02-17 04:25:00,43.6,40.0,29.93,WNW,284,0.0,0.0,87,0.00,,,0.00,Wunderground v.1.15,2013-02-17 12:25:00,
2013-02-17 04:40:00,43.1,39.2,29.93,WNW,284,0.0,0.0,86,0.00,,,0.00,Wunderground v.1.15,2013-02-17 12:40:00,
2013-02-17 04:45:00,43.0,39.1,29.93,WNW,284,0.0,0.0,86,0.00,,,0.00,Wunderground v.1.15,2013-02-17 12:45:00,
2013-02-17 04:50:00,42.9,39.3,29.93,WNW,284,0.0,0.0,87,0.00,,,0.00,Wunderground v.1.15,2013-02-17 12:50:00,
2013-02-17 04:55:00,42.9,39.3,29.94,WNW,284,0.0,0.0,87,0.00,,,0.00,Wunderground v.1.15,2013-02-17 12:55:00,
2013-02-17 05:00:00,42.9,39.3,29.94,WNW,284,0.0,0.0,87,0.00,,,0.00,Wunderground v.1.15,2013-02-17 13:00:00,
2013-02-17 05:05:00,42.7,39.1,29.94,WNW,284,0.0,0.0,87,0.00,,,0.00,Wunderground v.1.15,2013-02-17 13:05:00,
2013-02-17 05:20:00,42.4,38.8,29.94,WNW,284,0.0,0.0,87,0.00,,,0.00,Wunderground v.1.15,2013-02-17 13:20:00,
2013-02-17 05:25:00,42.5,38.9,29.95,WNW,284,0.0,0.0,87,0.00,,,0.00,Wunderground v.1.15,2013-02-17 13:25:00,
2013-02-17 05:35:00,43.0,39.7,29.94,WNW,284,0.0,0.0,88,0.00,,,0.00,Wunderground v.1.15,2013-02-17 13:35:00,
2013-02-17 05:45:00,43.8,40.5,29.94,WNW,284,0.0,0.0,88,0.00,,,0.00,Wunderground v.1.15,2013-02-17 13:45:00,
2013-02-17 05:50:00,44.2,40.9,29.94,WNW,284,0.0,0.0,88,0.00,,,0.00,Wunderground v.1.15,2013-02-17 13:50:00,
2013-02-17 05:55:00,44.4,41.1,29.94,WNW,284,0.0,0.0,88,0.00,,,0.00,Wunderground v.1.15,2013-02-17 13:55:00,
2013-02-17 06:00:00,44.5,41.2,29.94,WNW,284,0.0,0.0,88,0.00,,,0.00,Wunderground v.1.15,2013-02-17 14:00:00,
2013-02-17 06:05:00,44.7,41.4,29.94,WNW,284,0.0,0.0,88,0.00,,,0.00,Wunderground v.1.15,2013-02-17 14:05:00,
2013-02-17 06:10:00,45.1,41.8,29.94,WNW,284,0.0,0.0,88,0.00,,,0.00,Wunderground v.1.15,2013-02-17 14:10:00,
2013-02-17 06:15:00,45.4,42.1,29.94,WNW,284,0.0,0.0,88,0.00,,,0.00,Wunderground v.1.15,2013-02-17 14:15:00,
2013-02-17 06:35:00,45.2,41.6,29.95,WNW,284,0.0,0.0,87,0.00,,,0.00,Wunderground v.1.15,2013-02-17 14:35:00,
2013-02-17 06:45:00,45.0,41.4,29.95,WNW,284,0.0,0.0,87,0.00,,,0.00,Wunderground v.1.15,2013-02-17 14:45:00,
2013-02-17 07:00:00,44.5,40.9,29.95,WNW,284,0.0,0.0,87,0.00,,,0.00,Wunderground v.1.15,2013-02-17 15:00:00,
2013-02-17 07:05:00,44.7,41.4,29.96,WNW,284,0.0,0.0,88,0.00,,,0.00,Wunderground v.1.15,2013-02-17 15:05:00,
2013-02-17 07:10:00,45.0,41.7,29.96,WNW,284,0.0,0.0,88,0.00,,,0.00,Wunderground v.1.15,2013-02-17 15:10:00,
2013-02-17 07:20:00,46.0,42.9,29.96,WNW,284,0.0,0.0,89,0.00,,,0.00,Wunderground v.1.15,2013-02-17 15:20:00,
2013-02-17 07:30:00,46.8,43.7,29.96,WNW,284,0.0,0.0,89,0.00,,,0.00,Wunderground v.1.15,2013-02-17 15:30:00,
2013-02-17 07:40:00,47.6,44.5,29.96,WNW,284,0.0,0.0,89,0.00,,,0.00,Wunderground v.1.15,2013-02-17 15:40:00,
2013-02-17 07:45:00,48.1,45.0,29.97,WNW,284,0.0,0.0,89,0.00,,,0.00,Wunderground v.1.15,2013-02-17 15:45:00,
2013-02-17 07:50:00,48.6,45.5,29.97,WNW,284,0.0,0.0,89,0.00,,,0.00,Wunderground v.1.15,2013-02-17 15:50:00,
2013-02-17 07:55:00,49.3,46.2,29.97,WNW,284,0.0,0.0,89,0.00,,,0.00,Wunderground v.1.15,2013-02-17 15:55:00,
2013-02-17 08:00:00,50.0,47.2,29.97,WNW,284,0.0,0.0,90,0.00,,,0.00,Wunderground v.1.15,2013-02-17 16:00:00,
2013-02-17 08:05:00,50.7,47.9,29.97,WNW,284,0.0,0.0,90,0.00,,,0.00,Wunderground v.1.15,2013-02-17 16:05:00,
2013-02-17 08:20:00,52.3,49.5,29.97,WNW,286,0.0,1.0,90,0.00,,,0.00,Wunderground v.1.15,2013-02-17 16:20:00,
2013-02-17 08:25:00,52.7,49.8,29.97,WNW,286,0.0,1.0,90,0.00,,,0.00,Wunderground v.1.15,2013-02-17 16:25:00,
2013-02-17 08:30:00,52.8,49.6,29.98,WNW,286,0.0,0.0,89,0.00,,,0.00,Wunderground v.1.15,2013-02-17 16:30:00,
2013-02-17 08:45:00,53.3,51.0,29.98,WNW,286,0.0,0.0,92,0.00,,,0.00,Wunderground v.1.15,2013-02-17 16:45:00,
2013-02-17 08:50:00,53.5,50.3,29.98,West,277,0.0,0.0,89,0.00,,,0.00,Wunderground v.1.15,2013-02-17 16:50:00,
2013-02-17 08:55:00,53.9,50.7,29.98,East,98,1.0,1.0,89,0.00,,,0.00,Wunderground v.1.15,2013-02-17 16:55:00,
2013-02-17 09:05:00,54.9,51.4,29.98,South,188,2.0,4.0,88,0.00,,,0.00,Wunderground v.1.15,2013-02-17 17:05:00,
2013-02-17 12:55:00,62.3,53.5,29.93,SW,220,4.0,7.0,73,0.00,,,0.00,Wunderground v.1.15,2013-02-17 20:55:00,
2013-02-17 13:00:00,62.1,53.3,29.93,South,190,4.0,4.0,73,0.00,,,0.00,Wunderground v.1.15,2013-02-17 21:00:00,
2013-02-17 13:05:00,62.3,53.9,29.93,SSW,206,4.0,4.0,74,0.00,,,0.00,Wunderground v.1.15,2013-02-17 21:05:00,
2013-02-17 13:20:00,62.4,54.0,29.93,South,180,3.0,7.0,74,0.00,,,0.00,Wunderground v.1.15,2013-02-17 21:20:00,
2013-02-17 13:40:00,62.5,54.1,29.92,SSW,195,3.0,3.0,74,0.00,,,0.00,Wunderground v.1.15,2013-02-17 21:40:00,
2013-02-17 13:45:00,62.9,54.1,29.92,South,187,3.0,3.0,73,0.00,,,0.00,Wunderground v.1.15,2013-02-17 21:45:00,
2013-02-17 13:50:00,62.9,54.5,29.92,SE,143,3.0,4.0,74,0.00,,,0.00,Wunderground v.1.15,2013-02-17 21:50:00,
2013-02-17 13:55:00,63.2,54.4,29.92,SSW,204,3.0,5.0,73,0.00,,,0.00,Wunderground v.1.15,2013-02-17 21:55:00,
2013-02-17 14:05:00,62.8,54.0,29.92,South,176,4.0,6.0,73,0.00,,,0.00,Wunderground v.1.15,2013-02-17 22:05:00,
2013-02-17 14:10:00,63.1,54.7,29.92,SSE,159,3.0,3.0,74,0.00,,,0.00,Wunderground v.1.15,2013-02-17 22:10:00,
2013-02-17 14:15:00,63.2,54.0,29.93,East,94,3.0,3.0,72,0.00,,,0.00,Wunderground v.1.15,2013-02-17 22:15:00,
2013-02-17 14:20:00,63.2,54.0,29.93,SE,128,3.0,4.0,72,0.00,,,0.00,Wunderground v.1.15,2013-02-17 22:20:00,
2013-02-17 14:25:00,63.1,53.9,29.93,SSW,204,3.0,4.0,72,0.00,,,0.00,Wunderground v.1.15,2013-02-17 22:25:00,
2013-02-17 14:30:00,63.0,53.4,29.93,SSE,159,3.0,4.0,71,0.00,,,0.00,Wunderground v.1.15,2013-02-17 22:30:00,
2013-02-17 14:40:00,63.2,53.3,29.93,SW,218,2.0,3.0,70,0.00,,,0.00,Wunderground v.1.15,2013-02-17 22:40:00,
2013-02-17 14:45:00,63.3,53.3,29.93,South,179,2.0,2.0,70,0.00,,,0.00,Wunderground v.1.15,2013-02-17 22:45:00,
2013-02-17 14:50:00,63.1,53.2,29.93,SSW,205,2.0,2.0,70,0.00,,,0.00,Wunderground v.1.15,2013-02-17 22:50:00,
2013-02-17 14:55:00,63.0,53.4,29.93,South,173,3.0,3.0,71,0.00,,,0.00,Wunderground v.1.15,2013-02-17 22:55:00,
2013-02-17 15:00:00,62.9,53.0,29.93,South,174,3.0,3.0,70,0.00,,,0.00,Wunderground v.1.15,2013-02-17 23:00:00,
2013-02-17 15:10:00,62.5,53.0,29.94,South,184,3.0,4.0,71,0.00,,,0.00,Wunderground v.1.15,2013-02-17 23:10:00,
2013-02-17 15:20:00,61.4,53.0,29.94,SW,217,5.0,5.0,74,0.00,,,0.00,Wunderground v.1.15,2013-02-17 23:20:00,
2013-02-17 15:25:00,61.3,52.9,29.94,South,182,4.0,5.0,74,0.00,,,0.00,Wunderground v.1.15,2013-02-17 23:25:00,
2013-02-17 15:30:00,61.7,53.3,29.94,South,174,3.0,3.0,74,0.00,,,0.00,Wunderground v.1.15,2013-02-17 23:30:00,
2013-02-17 15:35:00,61.6,53.2,29.94,SSE,155,3.0,3.0,74,0.00,,,0.00,Wunderground v.1.15,2013-02-17 23:35:00,
2013-02-17 15:45:00,60.9,52.6,29.94,SSE,149,4.0,4.0,74,0.00,,,0.00,Wunderground v.1.15,2013-02-17 23:45:00,
2013-02-17 15:55:00,60.9,52.9,29.94,South,186,3.0,3.0,75,0.00,,,0.00,Wunderground v.1.15,2013-02-17 23:55:00,
2013-02-17 16:00:00,60.5,52.5,29.93,South,175,4.0,4.0,75,0.00,,,0.00,Wunderground v.1.15,2013-02-18 00:00:00,
2013-02-17 16:05:00,60.5,52.9,29.94,SSE,159,3.0,4.0,76,0.00,,,0.00,Wunderground v.1.15,2013-02-18 00:05:00,
2013-02-17 16:10:00,60.3,52.7,29.94,SSW,198,3.0,3.0,76,0.00,,,0.00,Wunderground v.1.15,2013-02-18 00:10:00,
2013-02-17 16:20:00,59.9,52.3,29.94,SW,225,4.0,4.0,76,0.00,,,0.00,Wunderground v.1.15,2013-02-18 00:20:00,
2013-02-17 16:25:00,59.5,52.3,29.94,South,190,5.0,5.0,77,0.00,,,0.00,Wunderground v.1.15,2013-02-18 00:25:00,
2013-02-17 16:30:00,59.5,52.6,29.94,South,171,3.0,3.0,78,0.00,,,0.00,Wunderground v.1.15,2013-02-18 00:30:00,
2013-02-17 16:45:00,58.9,52.1,29.94,SSW,198,3.0,3.0,78,0.00,,,0.00,Wunderground v.1.15,2013-02-18 00:45:00,
2013-02-17 16:50:00,58.5,52.0,29.94,SE,145,4.0,4.0,79,0.00,,,0.00,Wunderground v.1.15,2013-02-18 00:50:00,
2013-02-17 17:00:00,58.4,51.9,29.94,SSW,194,1.0,5.0,79,0.00,,,0.00,Wunderground v.1.15,2013-02-18 01:00:00,
2013-02-17 17:05:00,58.2,52.1,29.94,SSE,155,1.0,5.0,80,0.00,,,0.00,Wunderground v.1.15,2013-02-18 01:05:00,
2013-02-17 17:15:00,57.5,51.4,29.95,South,180,2.0,2.0,80,0.00,,,0.00,Wunderground v.1.15,2013-02-18 01:15:00,
2013-02-17 17:20:00,57.3,51.5,29.94,SSE,151,2.0,2.0,81,0.00,,,0.00,Wunderground v.1.15,2013-02-18 01:20:00,
2013-02-17 17:25:00,57.1,51.3,29.95,South,175,1.0,2.0,81,0.00,,,0.00,Wunderground v.1.15,2013-02-18 01:25:00,
2013-02-17 17:30:00,56.8,51.0,29.95,South,190,1.0,4.0,81,0.00,,,0.00,Wunderground v.1.15,2013-02-18 01:30:00,
2013-02-17 17:35:00,56.6,51.2,29.95,SSE,150,2.0,4.0,82,0.00,,,0.00,Wunderground v.1.15,2013-02-18 01:35:00,
2013-02-17 17:45:00,56.2,50.8,29.95,South,190,1.0,2.0,82,0.00,,,0.00,Wunderground v.1.15,2013-02-18 01:45:00,
2013-02-17 17:55:00,55.8,50.7,29.95,South,178,1.0,1.0,83,0.00,,,0.00,Wunderground v.1.15,2013-02-18 01:55:00,
2013-02-17 18:00:00,55.7,50.6,29.95,SSW,193,1.0,1.0,83,0.00,,,0.00,Wunderground v.1.15,2013-02-18 02:00:00,
2013-02-17 18:06:00,55.6,50.5,29.95,SE,124,1.0,1.0,83,0.00,,,0.00,Wunderground v.1.15,2013-02-18 02:06:00,
2013-02-17 18:10:00,55.6,50.8,29.96,East,97,1.0,1.0,84,0.00,,,0.00,Wunderground v.1.15,2013-02-18 02:10:00,
2013-02-17 18:20:00,55.4,50.6,29.96,SSE,153,0.0,0.0,84,0.00,,,0.00,Wunderground v.1.15,2013-02-18 02:20:00,
2013-02-17 18:25:00,55.3,50.5,29.96,SSE,150,0.0,0.0,84,0.00,,,0.00,Wunderground v.1.15,2013-02-18 02:25:00,
2013-02-17 18:30:00,55.2,50.4,29.96,SSE,150,0.0,0.0,84,0.00,,,0.00,Wunderground v.1.15,2013-02-18 02:30:00,
2013-02-17 18:35:00,55.1,50.4,29.96,SSE,150,0.0,0.0,84,0.00,,,0.00,Wunderground v.1.15,2013-02-18 02:35:00,
2013-02-17 18:40:00,55.0,50.3,29.96,SSE,150,0.0,0.0,84,0.00,,,0.00,Wunderground v.1.15,2013-02-18 02:40:00,
2013-02-17 18:50:00,54.9,50.2,29.96,SSE,163,0.0,0.0,84,0.00,,,0.00,Wunderground v.1.15,2013-02-18 02:50:00,
2013-02-17 18:55:00,54.9,50.5,29.96,SSE,159,0.0,0.0,85,0.00,,,0.00,Wunderground v.1.15,2013-02-18 02:55:00,
2013-02-17 19:00:00,54.9,50.5,29.96,SSE,159,0.0,0.0,85,0.00,,,0.00,Wunderground v.1.15,2013-02-18 03:00:00,
2013-02-17 19:05:00,54.8,50.4,29.96,SSE,158,0.0,0.0,85,0.00,,,0.00,Wunderground v.1.15,2013-02-18 03:05:00,
2013-02-17 19:25:00,54.7,50.3,29.97,SSE,158,0.0,0.0,85,0.00,,,0.00,Wunderground v.1.15,2013-02-18 03:25:00,
2013-02-17 19:35:00,54.7,50.3,29.97,SSE,158,0.0,0.0,85,0.00,,,0.00,Wunderground v.1.15,2013-02-18 03:35:00,
2013-02-17 19:40:00,54.7,50.3,29.97,SSE,158,0.0,0.0,85,0.00,,,0.00,Wunderground v.1.15,2013-02-18 03:40:00,
2013-02-17 19:45:00,54.6,50.2,29.97,SSE,158,0.0,0.0,85,0.00,,,0.00,Wunderground v.1.15,2013-02-18 03:45:00,
2013-02-17 19:50:00,54.6,49.9,29.97,SSE,158,0.0,0.0,84,0.00,,,0.00,Wunderground v.1.15,2013-02-18 03:50:00,
2013-02-17 19:55:00,54.5,49.8,29.98,SSE,158,0.0,0.0,84,0.00,,,0.00,Wunderground v.1.15,2013-02-18 03:55:00,
2013-02-17 20:00:00,54.5,49.8,29.98,SSE,158,0.0,0.0,84,0.00,,,0.00,Wunderground v.1.15,2013-02-18 04:00:00,
2013-02-17 20:05:00,54.4,49.7,29.98,SE,128,0.0,0.0,84,0.00,,,0.00,Wunderground v.1.15,2013-02-18 04:05:00,
2013-02-17 20:25:00,54.4,50.0,29.99,SE,128,0.0,0.0,85,0.00,,,0.00,Wunderground v.1.15,2013-02-18 04:25:00,
2013-02-17 20:40:00,54.5,50.1,29.99,ESE,123,0.0,0.0,85,0.00,,,0.00,Wunderground v.1.15,2013-02-18 04:40:00,
2013-02-17 20:50:00,54.7,50.3,29.99,ESE,123,0.0,0.0,85,0.00,,,0.00,Wunderground v.1.15,2013-02-18 04:50:00,
2013-02-17 21:00:00,54.8,50.4,30.00,ESE,123,0.0,0.0,85,0.00,,,0.00,Wunderground v.1.15,2013-02-18 05:00:00,
2013-02-17 21:05:00,54.9,50.5,30.00,ESE,123,0.0,0.0,85,0.00,,,0.00,Wunderground v.1.15,2013-02-18 05:05:00,
2013-02-17 21:10:00,55.0,50.3,30.00,ESE,123,0.0,0.0,84,0.00,,,0.00,Wunderground v.1.15,2013-02-18 05:10:00,
2013-02-17 21:20:00,55.0,50.3,30.00,ESE,123,0.0,0.0,84,0.00,,,0.00,Wunderground v.1.15,2013-02-18 05:20:00,
2013-02-17 21:25:00,55.1,50.4,30.00,ESE,123,0.0,0.0,84,0.00,,,0.00,Wunderground v.1.15,2013-02-18 05:25:00,
2013-02-17 22:05:00,55.4,51.0,30.01,ESE,113,0.0,0.0,85,0.00,,,0.00,Wunderground v.1.15,2013-02-18 06:05:00,
2013-02-17 22:20:00,55.5,50.1,30.02,ESE,107,1.0,1.0,82,0.00,,,0.00,Wunderground v.1.15,2013-02-18 06:20:00,
2013-02-17 22:25:00,55.5,50.1,30.02,East,90,1.0,1.0,82,0.00,,,0.00,Wunderground v.1.15,2013-02-18 06:25:00,
2013-02-17 22:30:00,55.5,50.1,30.02,East,90,1.0,2.0,82,0.00,,,0.00,Wunderground v.1.15,2013-02-18 06:30:00,
2013-02-17 22:35:00,55.5,50.1,30.02,ENE,70,1.0,2.0,82,0.00,,,0.00,Wunderground v.1.15,2013-02-18 06:35:00,
2013-02-17 22:40:00,55.5,50.1,30.02,ENE,69,1.0,1.0,82,0.00,,,0.00,Wunderground v.1.15,2013-02-18 06:40:00,
2013-02-17 22:50:00,55.5,50.1,30.02,East,82,1.0,1.0,82,0.00,,,0.00,Wunderground v.1.15,2013-02-18 06:50:00,
2013-02-17 22:55:00,55.5,50.1,30.02,East,88,1.0,1.0,82,0.00,,,0.00,Wunderground v.1.15,2013-02-18 06:55:00,
2013-02-17 23:00:00,55.4,50.0,30.02,East,88,0.0,0.0,82,0.00,,,0.00,Wunderground v.1.15,2013-02-18 07:00:00,
2013-02-17 23:05:00,55.4,49.7,30.02,East,94,0.0,0.0,81,0.00,,,0.00,Wunderground v.1.15,2013-02-18 07:05:00,
2013-02-17 23:10:00,55.4,49.7,30.01,East,94,0.0,0.0,81,0.00,,,0.00,Wunderground v.1.15,2013-02-18 07:10:00,
2013-02-17 23:15:00,55.4,49.7,30.02,East,97,0.0,2.0,81,0.00,,,0.00,Wunderground v.1.15,2013-02-18 07:15:00,
2013-02-17 23:20:00,55.4,49.7,30.02,East,97,0.0,0.0,81,0.00,,,0.00,Wunderground v.1.15,2013-02-18 07:20:00,
2013-02-17 23:25:00,55.4,49.7,30.02,East,96,0.0,0.0,81,0.00,,,0.00,Wunderground v.1.15,2013-02-18 07:25:00,
2013-02-17 23:30:00,55.4,49.7,30.02,East,96,0.0,0.0,81,0.00,,,0.00,Wunderground v.1.15,2013-02-18 07:30:00,
2013-02-17 23:35:00,55.4,49.7,30.02,East,96,0.0,0.0,81,0.00,,,0.00,Wunderground v.1.15,2013-02-18 07:35:00,
2013-02-17 23:45:00,55.4,49.7,30.02,East,96,0.0,0.0,81,0.00,,,0.00,Wunderground v.1.15,2013-02-18 07:45:00,
2013-02-17 23:50:00,55.3,49.6,30.02,East,96,0.0,2.0,81,0.00,,,0.00,Wunderground v.1.15,2013-02-18 07:50:00,